createdAt,value
2023-03-04T00:02:37.061Z,22.33
2023-03-04T00:07:38.475Z,22.33
2023-03-04T00:12:39.855Z,22.23
2023-03-04T00:17:41.236Z,22.28
2023-03-04T00:22:42.612Z,22.34
2023-03-04T00:27:44.042Z,22.31
2023-03-04T00:32:45.497Z,22.31
2023-03-04T00:37:46.914Z,22.24
2023-03-04T00:42:48.309Z,22.27
2023-03-04T00:47:49.687Z,22.31
2023-03-04T00:52:51.099Z,22.33
2023-03-04T00:57:52.532Z,22.24
2023-03-04T01:02:53.936Z,22.20
2023-03-04T01:07:55.334Z,22.30
2023-03-04T01:12:56.823Z,22.31
2023-03-04T01:17:58.267Z,22.27
2023-03-04T01:22:59.666Z,22.17
2023-03-04T01:28:01.051Z,22.25
2023-03-04T01:33:02.481Z,22.30
2023-03-04T01:38:05.192Z,22.31
2023-03-04T01:43:06.662Z,22.24
2023-03-04T01:48:09.333Z,22.23
2023-03-04T01:53:22.703Z,22.31
2023-03-04T01:58:25.939Z,22.33
2023-03-04T02:03:27.326Z,22.22
2023-03-04T02:08:28.698Z,22.18
2023-03-04T02:13:30.082Z,22.27
2023-03-04T02:18:31.452Z,22.32
2023-03-04T02:23:56.110Z,22.29
2023-03-04T02:28:58.434Z,22.23
2023-03-04T02:34:01.759Z,22.24
2023-03-04T02:39:05.791Z,22.32
2023-03-04T02:44:16.550Z,22.30
2023-03-04T02:49:18.230Z,22.20
2023-03-04T02:54:21.218Z,22.21
2023-03-04T02:59:22.656Z,22.29
2023-03-04T03:04:24.067Z,22.32
2023-03-04T03:09:25.460Z,22.28
2023-03-04T03:14:26.922Z,22.16
2023-03-04T03:19:28.312Z,22.22
2023-03-04T03:24:29.695Z,22.30
2023-03-04T03:29:31.078Z,22.25
2023-03-04T03:34:32.495Z,22.21
2023-03-04T03:39:33.883Z,22.24
2023-03-04T03:44:35.252Z,22.28
2023-03-04T03:49:36.623Z,22.27
2023-03-04T03:54:38.067Z,22.25
2023-03-04T03:59:39.456Z,22.19
2023-03-04T04:04:40.848Z,22.24
2023-03-04T04:09:42.287Z,22.28
2023-03-04T04:14:43.726Z,22.24
2023-03-04T04:19:45.160Z,22.21
2023-03-04T04:24:47.139Z,22.20
2023-03-04T04:29:48.539Z,22.29
2023-03-04T04:34:49.937Z,22.28
2023-03-04T04:39:51.745Z,22.19
2023-03-04T04:44:55.455Z,22.20
2023-03-04T04:49:56.837Z,22.27
2023-03-04T04:54:58.286Z,22.28
2023-03-04T04:59:59.659Z,22.27
2023-03-04T05:05:01.108Z,22.19
2023-03-04T05:10:02.579Z,22.23
2023-03-04T05:15:04.062Z,22.31
2023-03-04T05:20:07.029Z,22.27
2023-03-04T05:25:08.699Z,22.18
2023-03-04T05:30:10.738Z,22.15
2023-03-04T05:35:12.122Z,22.27
2023-03-04T05:40:13.656Z,22.31
2023-03-04T05:45:15.053Z,22.24
2023-03-04T05:50:16.495Z,22.16
2023-03-04T05:55:17.911Z,22.22
2023-03-04T06:00:19.420Z,22.26
2023-03-04T06:05:20.918Z,22.28
2023-03-04T06:10:22.362Z,22.18
2023-03-04T06:15:23.728Z,22.20
2023-03-04T06:20:25.108Z,22.27
2023-03-04T06:25:26.484Z,22.28
2023-03-04T06:30:28.083Z,22.18
2023-03-04T06:35:29.460Z,22.20
2023-03-04T06:40:30.903Z,22.26
2023-03-04T06:45:32.287Z,22.26
2023-03-04T06:50:33.668Z,22.23
2023-03-04T06:55:35.085Z,22.14
2023-03-04T07:00:36.509Z,22.22
2023-03-04T07:05:37.909Z,22.27
2023-03-04T07:10:39.307Z,22.23
2023-03-04T07:15:40.708Z,22.18
2023-03-04T07:20:42.087Z,22.21
2023-03-04T07:25:43.468Z,22.28
2023-03-04T07:30:44.902Z,22.28
2023-03-04T07:35:46.627Z,22.25
2023-03-04T07:40:57.892Z,22.16
2023-03-04T07:46:00.835Z,22.26
2023-03-04T07:51:19.007Z,22.29
2023-03-04T07:56:26.997Z,22.22
2023-03-04T08:01:30.230Z,22.22
2023-03-04T08:06:31.900Z,22.24
2023-03-04T08:11:33.985Z,22.32
2023-03-04T08:16:35.355Z,22.26
2023-03-04T08:21:36.771Z,22.19
2023-03-04T08:26:41.659Z,22.26
2023-03-04T08:31:45.834Z,22.32
2023-03-04T08:36:48.845Z,22.30
2023-03-04T08:41:50.303Z,22.23
2023-03-04T08:46:51.683Z,22.23
2023-03-04T08:51:53.051Z,22.34
2023-03-04T08:56:54.458Z,22.34
2023-03-04T09:01:55.869Z,22.28
2023-03-04T09:06:57.271Z,22.26
2023-03-04T09:11:58.655Z,22.31
2023-03-04T09:17:00.314Z,22.33
2023-03-04T09:22:02.051Z,22.29
2023-03-04T09:27:03.434Z,22.25
2023-03-04T09:32:05.042Z,22.25
2023-03-04T09:37:06.436Z,22.35
2023-03-04T09:42:08.860Z,22.34
2023-03-04T09:47:15.382Z,22.26
2023-03-04T09:52:43.146Z,22.26
2023-03-04T09:57:57.985Z,22.29
2023-03-04T10:03:09.733Z,22.34
2023-03-04T10:08:23.798Z,22.29
2023-03-04T10:13:54.135Z,22.21
2023-03-04T10:19:13.770Z,22.27
2023-03-04T10:24:17.927Z,22.31
2023-03-04T10:29:20.979Z,22.28
2023-03-04T10:34:22.590Z,22.22
2023-03-04T10:39:29.489Z,22.31
2023-03-04T10:44:31.536Z,22.34
2023-03-04T10:49:32.906Z,22.35
2023-03-04T10:54:53.341Z,22.25
2023-03-04T10:59:57.982Z,22.26
2023-03-04T11:05:14.516Z,22.30
2023-03-04T11:10:22.681Z,22.35
2023-03-04T11:15:27.230Z,22.30
2023-03-04T11:20:31.925Z,22.22
2023-03-04T11:25:38.458Z,22.28
2023-03-04T11:30:42.475Z,22.32
2023-03-04T11:36:10.139Z,22.34
2023-03-04T11:41:19.087Z,22.24
2023-03-04T11:46:35.581Z,22.27
2023-03-04T11:51:53.836Z,22.33
2023-03-04T11:57:17.841Z,22.35
2023-03-04T12:02:34.339Z,22.25
2023-03-04T12:07:54.019Z,22.21
2023-03-04T12:13:13.007Z,22.29
2023-03-04T12:18:27.221Z,22.31
2023-03-04T12:23:31.490Z,22.24
2023-03-04T12:28:52.215Z,22.19
2023-03-04T12:34:27.769Z,22.26
2023-03-04T12:39:38.051Z,22.26
2023-03-04T12:44:43.863Z,22.30
2023-03-04T12:50:14.470Z,22.25
2023-03-04T12:55:17.130Z,22.23
2023-03-04T13:00:33.642Z,22.29
2023-03-04T13:06:05.713Z,22.32
2023-03-04T13:11:25.957Z,22.25
2023-03-04T13:16:47.177Z,22.25
2023-03-04T13:21:48.681Z,22.24
2023-03-04T13:26:50.096Z,22.30
2023-03-04T13:32:24.459Z,22.28
2023-03-04T13:37:26.792Z,22.16
2023-03-04T13:42:43.830Z,22.23
2023-03-04T13:47:46.020Z,22.26
2023-03-04T13:52:47.392Z,22.28
2023-03-04T13:57:49.887Z,22.25
2023-03-04T14:02:51.267Z,22.17
2023-03-04T14:07:54.064Z,22.28
2023-03-04T14:12:58.210Z,22.29
2023-03-04T14:18:00.195Z,22.30
2023-03-04T14:23:02.829Z,22.24
2023-03-04T14:28:11.705Z,22.19
2023-03-04T14:33:20.715Z,22.26
2023-03-04T14:38:33.295Z,22.29
2023-03-04T14:43:37.433Z,22.25
2023-03-04T14:48:38.828Z,22.18
2023-03-04T14:53:52.860Z,22.22
2023-03-04T14:58:55.231Z,22.26
2023-03-04T15:03:58.344Z,22.27
2023-03-04T15:09:06.366Z,22.24
2023-03-04T15:14:35.506Z,22.15
2023-03-04T15:19:36.901Z,22.20
2023-03-04T15:24:38.269Z,22.23
2023-03-04T15:29:39.630Z,22.26
2023-03-04T15:34:40.991Z,22.17
2023-03-04T15:39:42.380Z,22.13
2023-03-04T15:44:44.027Z,22.13
2023-03-04T15:49:48.495Z,22.20
2023-03-04T15:54:49.864Z,22.20
2023-03-04T15:59:51.644Z,22.13
2023-03-04T16:04:53.679Z,22.08
2023-03-04T16:09:59.897Z,22.15
2023-03-04T16:15:01.274Z,22.19
2023-03-04T16:20:02.656Z,22.18
2023-03-04T16:25:04.353Z,22.11
2023-03-04T16:30:07.324Z,22.12
2023-03-04T16:35:09.167Z,22.14
2023-03-04T16:40:15.492Z,22.17
2023-03-04T16:45:24.273Z,22.14
2023-03-04T16:50:27.105Z,22.14
2023-03-04T16:55:28.802Z,22.10
2023-03-04T17:00:30.260Z,22.18
2023-03-04T17:05:32.273Z,22.19
2023-03-04T17:10:34.037Z,22.16
2023-03-04T17:15:35.412Z,22.10
2023-03-04T17:20:36.820Z,22.14
2023-03-04T17:25:38.202Z,22.20
2023-03-04T17:30:39.579Z,22.21
2023-03-04T17:35:41.042Z,22.16
2023-03-04T17:40:42.447Z,22.08
2023-03-04T17:45:43.860Z,22.13
2023-03-04T17:50:49.742Z,22.17
2023-03-04T17:55:51.482Z,22.15
2023-03-04T18:00:53.955Z,22.06
2023-03-04T18:05:55.595Z,22.08
2023-03-04T18:10:57.004Z,22.16
2023-03-04T18:15:58.606Z,22.19
2023-03-04T18:21:00.099Z,22.16
2023-03-04T18:26:02.391Z,22.06
2023-03-04T18:31:03.786Z,22.09
2023-03-04T18:36:09.343Z,22.15
2023-03-04T18:41:11.590Z,22.13
2023-03-04T18:46:24.735Z,22.11
2023-03-04T18:51:26.137Z,22.07
2023-03-04T18:56:49.972Z,22.13
2023-03-04T19:01:51.619Z,22.16
2023-03-04T19:06:53.248Z,22.19
2023-03-04T19:11:54.657Z,22.12
2023-03-04T19:16:56.151Z,22.07
2023-03-04T19:21:58.231Z,22.16
2023-03-04T19:26:59.618Z,22.16
2023-03-04T19:32:01.022Z,22.19
2023-03-04T19:37:02.437Z,22.08
2023-03-04T19:42:03.827Z,22.07
2023-03-04T19:47:05.311Z,22.14
2023-03-04T19:52:06.685Z,22.15
2023-03-04T19:57:08.082Z,22.15
2023-03-04T20:02:09.462Z,22.07
2023-03-04T20:07:10.847Z,22.10
2023-03-04T20:12:12.876Z,22.15
2023-03-04T20:17:15.050Z,22.17
2023-03-04T20:22:16.473Z,22.10
2023-03-04T20:27:17.939Z,22.10
2023-03-04T20:32:19.353Z,22.11
2023-03-04T20:37:20.960Z,22.16
2023-03-04T20:42:22.547Z,22.15
2023-03-04T20:47:23.917Z,22.10
2023-03-04T20:52:25.354Z,22.06
2023-03-04T20:57:26.722Z,22.12
2023-03-04T21:02:28.096Z,22.15
2023-03-04T21:07:29.472Z,22.11
2023-03-04T21:12:30.913Z,22.06
2023-03-04T21:17:32.289Z,22.09
2023-03-04T21:22:33.690Z,22.15
2023-03-04T21:27:38.587Z,22.16
2023-03-04T21:32:40.018Z,22.11
2023-03-04T21:37:41.729Z,22.01
2023-03-04T21:42:43.151Z,22.08
2023-03-04T21:47:44.568Z,22.14
2023-03-04T21:52:46.078Z,22.11
2023-03-04T21:57:47.452Z,22.05
2023-03-04T22:02:48.868Z,22.05
2023-03-04T22:07:50.235Z,22.10
2023-03-04T22:12:52.845Z,22.16
2023-03-04T22:17:54.222Z,22.13
2023-03-04T22:22:55.656Z,22.01
2023-03-04T22:27:57.029Z,22.04
2023-03-04T22:32:58.444Z,22.11
2023-03-04T22:37:59.820Z,22.12
2023-03-04T22:43:01.196Z,22.07
2023-03-04T22:48:02.606Z,22.00
2023-03-04T22:53:06.575Z,22.07
2023-03-04T22:58:07.939Z,22.08
2023-03-04T23:03:10.148Z,22.12
2023-03-04T23:08:11.527Z,22.06
2023-03-04T23:13:12.935Z,22.06
2023-03-04T23:18:14.304Z,22.12
2023-03-04T23:23:15.679Z,22.10
2023-03-04T23:28:17.052Z,22.11
2023-03-04T23:33:18.418Z,22.01
2023-03-04T23:38:19.805Z,22.08
2023-03-04T23:43:21.187Z,22.11
2023-03-04T23:48:22.608Z,22.13
2023-03-04T23:53:23.978Z,22.07
2023-03-04T23:58:25.394Z,22.00
